createdAt,value
2023-04-02T00:01:47.554Z,98952.81
2023-04-02T00:06:54.224Z,98949.47
2023-04-02T00:11:56.554Z,98949.47
2023-04-02T00:17:01.248Z,98946.13
2023-04-02T00:22:07.637Z,98949.47
2023-04-02T00:27:15.440Z,98966.28
2023-04-02T00:32:37.379Z,98960.38
2023-04-02T00:37:42.149Z,98956.13
2023-04-02T00:42:44.809Z,98952.81
2023-04-02T00:47:46.996Z,98956.97
2023-04-02T00:52:52.481Z,98960.31
2023-04-02T00:57:56.109Z,98960.38
2023-04-02T01:03:16.478Z,98966.19
2023-04-02T01:08:52.367Z,98967.88
2023-04-02T01:14:23.468Z,98962.88
2023-04-02T01:19:46.516Z,98968.75
2023-04-02T01:24:49.086Z,98967.09
2023-04-02T01:29:56.739Z,98968.81
2023-04-02T01:34:58.795Z,98968.84
2023-04-02T01:40:14.451Z,98963.88
2023-04-02T01:45:19.711Z,98963.00
2023-04-02T01:50:31.918Z,98968.09
2023-04-02T01:55:37.752Z,98970.63
2023-04-02T02:00:53.339Z,98968.13
2023-04-02T02:05:56.097Z,98977.34
2023-04-02T02:10:59.329Z,98976.50
2023-04-02T02:16:03.268Z,98980.75
2023-04-02T02:21:08.217Z,98977.44
2023-04-02T02:26:13.206Z,98977.44
2023-04-02T02:31:22.815Z,98981.66
2023-04-02T02:36:50.786Z,98980.81
2023-04-02T02:41:57.373Z,98978.31
2023-04-02T02:47:04.755Z,98975.81
2023-04-02T02:52:12.999Z,98972.47
2023-04-02T02:57:26.280Z,98979.16
2023-04-02T03:02:29.511Z,98984.19
2023-04-02T03:07:33.299Z,98988.41
2023-04-02T03:12:43.630Z,98985.88
2023-04-02T03:18:00.674Z,99001.81
2023-04-02T03:23:05.752Z,98999.25
2023-04-02T03:28:19.636Z,98995.91
2023-04-02T03:33:27.670Z,98997.59
2023-04-02T03:38:53.793Z,99010.16
2023-04-02T03:44:00.894Z,99013.47
2023-04-02T03:49:09.704Z,99016.03
2023-04-02T03:54:15.636Z,99017.66
2023-04-02T03:59:32.872Z,99024.38
2023-04-02T04:04:39.775Z,99025.25
2023-04-02T04:09:46.903Z,99041.19
2023-04-02T04:15:16.958Z,99047.88
2023-04-02T04:20:26.013Z,99065.50
2023-04-02T04:25:30.673Z,99070.53
2023-04-02T04:30:50.945Z,99071.38
2023-04-02T04:35:59.927Z,99073.03
2023-04-02T04:41:16.427Z,99076.38
2023-04-02T04:46:31.015Z,99078.88
2023-04-02T04:51:47.676Z,99079.75
2023-04-02T04:56:55.614Z,99086.41
2023-04-02T05:02:07.662Z,99075.56
2023-04-02T05:07:17.654Z,99092.31
2023-04-02T05:12:40.422Z,99102.34
2023-04-02T05:18:01.874Z,99094.81
2023-04-02T05:23:13.663Z,99096.47
2023-04-02T05:28:22.377Z,99103.16
2023-04-02T05:33:32.493Z,99095.59
2023-04-02T05:38:44.989Z,99098.94
2023-04-02T05:43:51.367Z,99113.16
2023-04-02T05:48:58.449Z,99118.19
2023-04-02T05:54:03.737Z,99124.03
2023-04-02T05:59:19.591Z,99114.78
2023-04-02T06:04:41.490Z,99121.47
2023-04-02T06:09:50.652Z,99131.53
2023-04-02T06:14:52.829Z,99126.53
2023-04-02T06:19:59.389Z,99134.06
2023-04-02T06:25:09.387Z,99139.13
2023-04-02T06:30:24.182Z,99150.00
2023-04-02T06:35:27.814Z,99161.72
2023-04-02T06:40:58.952Z,99160.88
2023-04-02T06:46:32.419Z,99168.44
2023-04-02T06:51:40.881Z,99164.22
2023-04-02T06:56:52.517Z,99172.59
2023-04-02T07:02:06.634Z,99172.50
2023-04-02T07:07:08.980Z,99180.06
2023-04-02T07:12:14.965Z,99184.25
2023-04-02T07:17:19.726Z,99168.19
2023-04-02T07:22:22.207Z,99163.88
2023-04-02T07:27:30.778Z,99182.41
2023-04-02T07:32:32.443Z,99192.19
2023-04-02T07:37:34.027Z,99186.06
2023-04-02T07:42:35.760Z,99196.72
2023-04-02T07:47:37.384Z,99197.47
2023-04-02T07:52:43.021Z,99196.72
2023-04-02T07:57:49.348Z,99195.16
2023-04-02T08:02:51.802Z,99205.09
2023-04-02T08:07:55.561Z,99212.66
2023-04-02T08:12:57.279Z,99213.56
2023-04-02T08:17:58.982Z,99221.94
2023-04-02T08:23:01.317Z,99223.63
2023-04-02T08:28:03.208Z,99226.78
2023-04-02T08:33:14.509Z,99221.75
2023-04-02T08:38:18.871Z,99235.94
2023-04-02T08:43:37.491Z,99243.41
2023-04-02T08:48:43.940Z,99238.28
2023-04-02T08:53:46.530Z,99239.06
2023-04-02T08:58:55.994Z,99239.91
2023-04-02T09:03:58.859Z,99249.91
2023-04-02T09:09:01.161Z,99252.09
2023-04-02T09:14:09.189Z,99252.19
2023-04-02T09:19:21.838Z,99251.03
2023-04-02T09:24:23.538Z,99248.72
2023-04-02T09:29:42.834Z,99263.03
2023-04-02T09:34:44.497Z,99256.72
2023-04-02T09:39:46.275Z,99255.66
2023-04-02T09:44:47.904Z,99268.84
2023-04-02T09:49:49.537Z,99274.84
2023-04-02T09:55:11.885Z,99281.25
2023-04-02T10:00:25.913Z,99282.69
2023-04-02T10:05:40.598Z,99285.06
2023-04-02T10:10:46.793Z,99280.03
2023-04-02T10:16:07.204Z,99280.75
2023-04-02T10:21:12.923Z,99275.13
2023-04-02T10:26:17.520Z,99280.75
2023-04-02T10:31:27.725Z,99291.50
2023-04-02T10:36:48.646Z,99295.03
2023-04-02T10:41:57.673Z,99290.34
2023-04-02T10:47:04.089Z,99286.03
2023-04-02T10:52:24.091Z,99299.34
2023-04-02T10:57:34.930Z,99294.69
2023-04-02T11:02:52.105Z,99315.88
2023-04-02T11:07:59.610Z,99314.34
2023-04-02T11:13:22.831Z,99316.88
2023-04-02T11:18:29.526Z,99325.97
2023-04-02T11:23:35.082Z,99334.19
2023-04-02T11:28:36.763Z,99344.34
2023-04-02T11:33:44.716Z,99355.53
2023-04-02T11:38:52.392Z,99373.72
2023-04-02T11:44:01.307Z,99397.38
2023-04-02T11:49:33.102Z,99431.16
2023-04-02T11:54:38.310Z,99442.25
2023-04-02T11:59:50.695Z,99460.66
2023-04-02T12:05:19.341Z,99487.44
2023-04-02T12:10:32.307Z,99493.38
2023-04-02T12:15:40.085Z,99502.03
2023-04-02T12:20:47.210Z,99505.28
2023-04-02T12:26:06.450Z,99506.00
2023-04-02T12:31:08.089Z,99511.03
2023-04-02T12:36:16.070Z,99517.81
2023-04-02T12:41:30.010Z,99514.56
2023-04-02T12:46:34.045Z,99522.00
2023-04-02T12:51:36.911Z,99535.31
2023-04-02T12:56:38.536Z,99531.47
2023-04-02T13:01:56.246Z,99531.50
2023-04-02T13:06:58.467Z,99537.44
2023-04-02T13:12:01.068Z,99549.06
2023-04-02T13:17:02.727Z,99535.88
2023-04-02T13:22:31.685Z,99551.59
2023-04-02T13:27:33.323Z,99560.91
2023-04-02T13:32:34.967Z,99559.22
2023-04-02T13:37:36.614Z,99561.00
2023-04-02T13:42:38.890Z,99561.16
2023-04-02T13:47:41.330Z,99559.53
2023-04-02T13:52:43.222Z,99562.13
2023-04-02T13:57:45.612Z,99569.00
2023-04-02T14:02:53.831Z,99566.44
2023-04-02T14:08:46.175Z,99563.06
2023-04-02T14:14:03.037Z,99579.13
2023-04-02T14:19:10.961Z,99577.50
2023-04-02T14:24:44.635Z,99573.34
2023-04-02T14:30:04.461Z,99589.50
2023-04-02T14:35:31.542Z,99584.53
2023-04-02T14:40:46.478Z,99583.53
2023-04-02T14:45:51.693Z,99594.28
2023-04-02T14:51:18.158Z,99595.09
2023-04-02T14:56:23.613Z,99603.50
2023-04-02T15:01:31.553Z,99601.56
2023-04-02T15:06:40.521Z,99615.75
2023-04-02T15:11:45.765Z,99627.41
2023-04-02T15:16:48.311Z,99621.25
2023-04-02T15:22:09.438Z,99626.09
2023-04-02T15:27:29.760Z,99634.00
2023-04-02T15:32:34.547Z,99645.31
2023-04-02T15:37:55.274Z,99646.41
2023-04-02T15:43:04.721Z,99671.63
2023-04-02T15:48:24.206Z,99684.78
2023-04-02T15:53:43.650Z,99691.06
2023-04-02T15:59:25.511Z,99716.75
2023-04-02T16:04:33.182Z,99720.75
2023-04-02T16:10:06.977Z,99737.63
2023-04-02T16:15:18.699Z,99744.41
2023-04-02T16:20:36.982Z,99749.50
2023-04-02T16:25:56.371Z,99759.25
2023-04-02T16:31:01.409Z,99763.16
2023-04-02T16:36:14.360Z,99783.34
2023-04-02T16:41:34.620Z,99776.50
2023-04-02T16:47:13.783Z,99785.94
2023-04-02T16:52:37.391Z,99799.59
2023-04-02T16:58:06.903Z,99807.47
2023-04-02T17:03:25.452Z,99819.91
2023-04-02T17:08:32.923Z,99827.94
2023-04-02T17:13:47.301Z,99843.31
2023-04-02T17:18:52.454Z,99868.25
2023-04-02T17:24:05.606Z,99877.25
2023-04-02T17:29:09.701Z,99876.84
2023-04-02T17:34:17.051Z,99892.34
2023-04-02T17:39:42.589Z,99909.75
2023-04-02T17:44:56.252Z,99920.09
2023-04-02T17:50:30.400Z,99938.31
2023-04-02T17:55:53.358Z,99953.34
2023-04-02T18:01:14.487Z,99968.50
2023-04-02T18:06:25.384Z,99981.03
2023-04-02T18:11:55.321Z,100002.13
2023-04-02T18:17:26.610Z,100004.59
2023-04-02T18:23:05.303Z,100019.53
2023-04-02T18:28:17.828Z,100031.88
2023-04-02T18:33:56.857Z,100038.13
2023-04-02T18:39:18.645Z,100048.59
2023-04-02T18:44:50.849Z,100060.22
2023-04-02T18:50:15.793Z,100075.31
2023-04-02T18:55:21.716Z,100083.72
2023-04-02T19:00:29.746Z,100091.38
2023-04-02T19:05:51.400Z,100086.78
2023-04-02T19:11:08.643Z,100099.19
2023-04-02T19:16:22.251Z,100110.44
2023-04-02T19:21:33.019Z,100117.31
2023-04-02T19:27:27.841Z,100123.63
2023-04-02T19:32:50.630Z,100132.91
2023-04-02T19:38:19.912Z,100136.44
2023-04-02T19:43:21.848Z,100141.34
2023-04-02T19:48:27.020Z,100142.81
2023-04-02T19:53:28.932Z,100169.69
2023-04-02T19:58:33.360Z,100157.88
2023-04-02T20:03:35.402Z,100174.59
2023-04-02T20:08:38.388Z,100176.09
2023-04-02T20:13:40.078Z,100176.59
2023-04-02T20:18:41.732Z,100182.56
2023-04-02T20:23:43.331Z,100180.66
2023-04-02T20:28:44.958Z,100190.66
2023-04-02T20:33:47.883Z,100183.75
2023-04-02T20:38:51.408Z,100188.22
2023-04-02T20:43:53.661Z,100193.25
2023-04-02T20:48:55.482Z,100196.94
2023-04-02T20:53:58.476Z,100194.19
2023-04-02T20:59:00.353Z,100199.81
2023-04-02T21:04:03.559Z,100204.72
2023-04-02T21:09:08.711Z,100201.28
2023-04-02T21:14:11.477Z,100205.91
2023-04-02T21:19:13.280Z,100212.34
2023-04-02T21:24:14.919Z,100222.31
2023-04-02T21:29:17.126Z,100222.13
2023-04-02T21:34:18.727Z,100209.50
2023-04-02T21:39:23.285Z,100215.41
2023-04-02T21:44:25.140Z,100204.81
2023-04-02T21:49:27.855Z,100200.34
2023-04-02T21:54:30.574Z,100203.81
2023-04-02T21:59:32.182Z,100203.00
2023-04-02T22:04:33.893Z,100192.94
2023-04-02T22:09:36.045Z,100192.69
2023-04-02T22:14:37.637Z,100199.41
2023-04-02T22:19:39.283Z,100210.09
2023-04-02T22:24:41.037Z,100211.00
2023-04-02T22:29:42.686Z,100210.66
2023-04-02T22:34:45.737Z,100206.78
2023-04-02T22:39:47.611Z,100209.22
2023-04-02T22:44:49.408Z,100207.44
2023-04-02T22:49:51.230Z,100210.91
2023-04-02T22:54:53.078Z,100224.50
2023-04-02T22:59:54.676Z,100218.59
2023-04-02T23:04:56.336Z,100217.91
2023-04-02T23:09:57.923Z,100212.59
2023-04-02T23:15:00.674Z,100215.81
2023-04-02T23:20:02.301Z,100217.44
2023-04-02T23:25:05.813Z,100221.44
2023-04-02T23:30:08.723Z,100231.66
2023-04-02T23:35:10.324Z,100216.50
2023-04-02T23:40:12.051Z,100222.63
2023-04-02T23:45:14.065Z,100222.63
2023-04-02T23:50:15.851Z,100222.50
2023-04-02T23:55:17.439Z,100223.41
